OIBS  Sirri Island  Airport

Iran

Add Bookmark
ICAO OIBS
IATA SXI
Type Airport
Status Operational
Latitude
25° 54' 32" N
25.908899
Longitude
54° 32' 21" E
54.539398
Local (GMT +3.5 ) UTC
Dec 6, 2016 04:15 am Dec 6, 2016 00:45
Sunrise-Sunset Local UTC
Begin Civil Twilight 05:59 am 02:29
Sunrise 06:24 am 02:54
Sunset 05:01 pm 13:31
End Civil Twilight 05:26 pm 13:56
VFR
VFR
MVFR
MVFR
IFR
IFR
LIFR
LIFR
Unknown
No Data

Current Weather

METAR Observed MVFR
OIBS 051500Z 02006KT 7000 NSC 27/22 Q1015 Mon, Dec 5, 2016 @ 15:00 UTC
(9 Hours, 45 Minutes ago)
Marginal Visual Flight Rules
Wind Visibility Conditions
020° at 6 knots (11 kph) 7,001 m
  • No significant weather
Temperatures Readings Precipitation
Current Temp
27°C
81°F
Dewpoint
22°C
72°F
Heat Index
29°C
85°
Humidity 74%
Altimeter 29.97" Hg
Sea Level Pressure 1,015 mb
Field Elevation
14 m
46 ft
None Recorded

Additional weather within a 92.6km radius of OIBS

Map ICAO Location
OIBA 49.4km E (094°)
OIBL 74.8km N/NE (022°)
OIBK 88.5km NW (321°)
VFR
VFR
MVFR
MVFR
IFR
IFR
LIFR
LIFR
Unknown
No Data
-
-

CheckWX.com is intended as a tool to help pilots better visualize weather data. It is not intended as a substitute for an official weather briefing obtained from a Flight Service Station. CheckWX.com does not meet the FAA requirements for an official pre-flight weather briefing. Therefore, it's important that pilots still call and obtain an official FSS pre-flight weather briefing.

© 2007-2016 CheckWX.com
00:45:46 UTC